sensor_id;sensor_type;location;lat;lon;timestamp;P1;durP1;ratioP1;P2;durP2;ratioP2
21472;SDS011;10898;48.072;11.682;2022-12-18T00:01:02;53.88;;;25.40;;
21472;SDS011;10898;48.072;11.682;2022-12-18T00:03:07;58.20;;;26.15;;
21472;SDS011;10898;48.072;11.682;2022-12-18T00:05:10;53.28;;;25.00;;
21472;SDS011;10898;48.072;11.682;2022-12-18T00:07:12;50.15;;;24.33;;
21472;SDS011;10898;48.072;11.682;2022-12-18T00:09:14;57.20;;;25.20;;
21472;SDS011;10898;48.072;11.682;2022-12-18T00:13:18;53.45;;;23.55;;
21472;SDS011;10898;48.072;11.682;2022-12-18T00:15:21;56.15;;;24.98;;
21472;SDS011;10898;48.072;11.682;2022-12-18T00:17:23;52.13;;;23.80;;
21472;SDS011;10898;48.072;11.682;2022-12-18T00:19:25;50.30;;;23.77;;
21472;SDS011;10898;48.072;11.682;2022-12-18T00:21:28;52.50;;;23.40;;
21472;SDS011;10898;48.072;11.682;2022-12-18T00:23:30;51.33;;;23.63;;
21472;SDS011;10898;48.072;11.682;2022-12-18T00:25:33;53.33;;;23.88;;
21472;SDS011;10898;48.072;11.682;2022-12-18T00:27:36;48.90;;;24.63;;
21472;SDS011;10898;48.072;11.682;2022-12-18T00:29:41;45.58;;;21.83;;
21472;SDS011;10898;48.072;11.682;2022-12-18T00:31:43;43.92;;;22.38;;
21472;SDS011;10898;48.072;11.682;2022-12-18T00:33:45;49.03;;;23.10;;
21472;SDS011;10898;48.072;11.682;2022-12-18T00:35:50;51.90;;;24.27;;
21472;SDS011;10898;48.072;11.682;2022-12-18T00:37:52;48.22;;;23.20;;
21472;SDS011;10898;48.072;11.682;2022-12-18T00:39:54;49.10;;;22.95;;
21472;SDS011;10898;48.072;11.682;2022-12-18T00:41:56;56.42;;;23.73;;
21472;SDS011;10898;48.072;11.682;2022-12-18T00:44:17;50.35;;;23.00;;
21472;SDS011;10898;48.072;11.682;2022-12-18T00:46:20;52.15;;;22.98;;
21472;SDS011;10898;48.072;11.682;2022-12-18T00:48:22;50.65;;;23.90;;
21472;SDS011;10898;48.072;11.682;2022-12-18T00:52:26;48.07;;;22.67;;
21472;SDS011;10898;48.072;11.682;2022-12-18T00:54:29;51.05;;;22.92;;
21472;SDS011;10898;48.072;11.682;2022-12-18T00:56:31;49.28;;;22.95;;
21472;SDS011;10898;48.072;11.682;2022-12-18T00:58:36;51.53;;;23.02;;
21472;SDS011;10898;48.072;11.682;2022-12-18T01:00:38;52.55;;;22.95;;
21472;SDS011;10898;48.072;11.682;2022-12-18T01:02:41;58.05;;;24.75;;
21472;SDS011;10898;48.072;11.682;2022-12-18T01:04:43;49.55;;;24.10;;
21472;SDS011;10898;48.072;11.682;2022-12-18T01:06:45;50.63;;;24.73;;
21472;SDS011;10898;48.072;11.682;2022-12-18T01:08:47;51.95;;;23.45;;
21472;SDS011;10898;48.072;11.682;2022-12-18T01:10:49;50.40;;;24.38;;
21472;SDS011;10898;48.072;11.682;2022-12-18T01:12:52;51.00;;;23.95;;
21472;SDS011;10898;48.072;11.682;2022-12-18T01:14:54;53.53;;;24.10;;
21472;SDS011;10898;48.072;11.682;2022-12-18T01:16:56;53.15;;;25.25;;
21472;SDS011;10898;48.072;11.682;2022-12-18T01:18:58;53.47;;;25.80;;
21472;SDS011;10898;48.072;11.682;2022-12-18T01:21:00;54.83;;;25.33;;
21472;SDS011;10898;48.072;11.682;2022-12-18T01:23:06;58.22;;;26.70;;
21472;SDS011;10898;48.072;11.682;2022-12-18T01:25:09;55.63;;;26.27;;
21472;SDS011;10898;48.072;11.682;2022-12-18T01:27:11;60.63;;;27.80;;
21472;SDS011;10898;48.072;11.682;2022-12-18T01:29:13;54.80;;;25.55;;
21472;SDS011;10898;48.072;11.682;2022-12-18T01:31:26;54.22;;;25.33;;
21472;SDS011;10898;48.072;11.682;2022-12-18T01:33:28;62.13;;;26.73;;
21472;SDS011;10898;48.072;11.682;2022-12-18T01:35:30;57.53;;;25.30;;
21472;SDS011;10898;48.072;11.682;2022-12-18T01:39:35;59.87;;;25.93;;
21472;SDS011;10898;48.072;11.682;2022-12-18T01:41:37;57.65;;;25.55;;
21472;SDS011;10898;48.072;11.682;2022-12-18T01:43:58;59.20;;;26.23;;
21472;SDS011;10898;48.072;11.682;2022-12-18T01:46:00;58.20;;;26.35;;
21472;SDS011;10898;48.072;11.682;2022-12-18T01:48:03;65.18;;;28.77;;
21472;SDS011;10898;48.072;11.682;2022-12-18T01:52:15;67.53;;;27.65;;
21472;SDS011;10898;48.072;11.682;2022-12-18T01:54:18;59.42;;;25.88;;
21472;SDS011;10898;48.072;11.682;2022-12-18T01:56:20;65.00;;;27.77;;
21472;SDS011;10898;48.072;11.682;2022-12-18T02:00:25;46.00;;;19.83;;
21472;SDS011;10898;48.072;11.682;2022-12-18T02:02:28;61.05;;;28.67;;
21472;SDS011;10898;48.072;11.682;2022-12-18T02:04:31;59.78;;;27.33;;
21472;SDS011;10898;48.072;11.682;2022-12-18T02:06:34;63.97;;;28.33;;
21472;SDS011;10898;48.072;11.682;2022-12-18T02:15:37;65.53;;;28.23;;
21472;SDS011;10898;48.072;11.682;2022-12-18T02:17:46;65.55;;;28.02;;
21472;SDS011;10898;48.072;11.682;2022-12-18T02:22:07;63.20;;;28.25;;
21472;SDS011;10898;48.072;11.682;2022-12-18T02:24:25;60.70;;;28.52;;
21472;SDS011;10898;48.072;11.682;2022-12-18T02:28:35;64.78;;;27.25;;
21472;SDS011;10898;48.072;11.682;2022-12-18T02:30:37;65.40;;;28.15;;
21472;SDS011;10898;48.072;11.682;2022-12-18T02:32:43;65.47;;;29.45;;
21472;SDS011;10898;48.072;11.682;2022-12-18T02:34:46;61.95;;;28.73;;
21472;SDS011;10898;48.072;11.682;2022-12-18T02:36:50;63.67;;;28.90;;
21472;SDS011;10898;48.072;11.682;2022-12-18T02:38:53;56.25;;;26.10;;
21472;SDS011;10898;48.072;11.682;2022-12-18T02:40:56;65.57;;;29.52;;
21472;SDS011;10898;48.072;11.682;2022-12-18T02:43:11;65.28;;;27.58;;
21472;SDS011;10898;48.072;11.682;2022-12-18T02:45:13;61.45;;;27.63;;
21472;SDS011;10898;48.072;11.682;2022-12-18T02:47:16;60.17;;;28.33;;
21472;SDS011;10898;48.072;11.682;2022-12-18T02:51:23;69.30;;;27.83;;
21472;SDS011;10898;48.072;11.682;2022-12-18T02:53:29;66.45;;;28.35;;
21472;SDS011;10898;48.072;11.682;2022-12-18T02:59:54;62.72;;;27.95;;
21472;SDS011;10898;48.072;11.682;2022-12-18T03:02:02;69.20;;;29.10;;
21472;SDS011;10898;48.072;11.682;2022-12-18T03:04:11;59.42;;;26.15;;
21472;SDS011;10898;48.072;11.682;2022-12-18T03:06:20;65.13;;;28.42;;
21472;SDS011;10898;48.072;11.682;2022-12-18T03:08:25;61.28;;;27.05;;
21472;SDS011;10898;48.072;11.682;2022-12-18T03:10:28;63.08;;;27.42;;
21472;SDS011;10898;48.072;11.682;2022-12-18T03:12:32;68.43;;;28.70;;
21472;SDS011;10898;48.072;11.682;2022-12-18T03:14:36;59.80;;;27.63;;
21472;SDS011;10898;48.072;11.682;2022-12-18T03:16:39;64.82;;;28.42;;
21472;SDS011;10898;48.072;11.682;2022-12-18T03:18:46;59.45;;;27.23;;
21472;SDS011;10898;48.072;11.682;2022-12-18T03:20:50;59.72;;;27.90;;
21472;SDS011;10898;48.072;11.682;2022-12-18T03:22:55;71.57;;;30.27;;
21472;SDS011;10898;48.072;11.682;2022-12-18T03:25:00;70.43;;;28.40;;
21472;SDS011;10898;48.072;11.682;2022-12-18T03:27:03;62.38;;;29.42;;
21472;SDS011;10898;48.072;11.682;2022-12-18T03:29:08;60.67;;;27.80;;
21472;SDS011;10898;48.072;11.682;2022-12-18T03:31:13;62.08;;;28.23;;
21472;SDS011;10898;48.072;11.682;2022-12-18T03:35:22;62.50;;;27.70;;
21472;SDS011;10898;48.072;11.682;2022-12-18T03:37:24;59.47;;;28.67;;
21472;SDS011;10898;48.072;11.682;2022-12-18T03:39:26;67.43;;;28.83;;
21472;SDS011;10898;48.072;11.682;2022-12-18T03:41:33;59.47;;;26.95;;
21472;SDS011;10898;48.072;11.682;2022-12-18T03:43:52;56.55;;;26.35;;
21472;SDS011;10898;48.072;11.682;2022-12-18T03:46:05;63.70;;;27.48;;
21472;SDS011;10898;48.072;11.682;2022-12-18T03:50:16;61.47;;;27.73;;
21472;SDS011;10898;48.072;11.682;2022-12-18T03:52:22;57.40;;;26.25;;
21472;SDS011;10898;48.072;11.682;2022-12-18T03:54:27;62.58;;;28.92;;
21472;SDS011;10898;48.072;11.682;2022-12-18T03:56:31;61.25;;;27.52;;
21472;SDS011;10898;48.072;11.682;2022-12-18T03:58:34;60.67;;;26.42;;
21472;SDS011;10898;48.072;11.682;2022-12-18T04:00:36;65.75;;;27.77;;
21472;SDS011;10898;48.072;11.682;2022-12-18T04:02:41;70.22;;;28.63;;
21472;SDS011;10898;48.072;11.682;2022-12-18T04:04:44;59.70;;;26.48;;
21472;SDS011;10898;48.072;11.682;2022-12-18T04:06:49;56.35;;;27.13;;
21472;SDS011;10898;48.072;11.682;2022-12-18T04:10:53;57.37;;;27.23;;
21472;SDS011;10898;48.072;11.682;2022-12-18T04:12:56;56.78;;;25.05;;
21472;SDS011;10898;48.072;11.682;2022-12-18T04:14:58;51.15;;;23.75;;
21472;SDS011;10898;48.072;11.682;2022-12-18T04:17:01;53.72;;;24.75;;
21472;SDS011;10898;48.072;11.682;2022-12-18T04:19:04;56.42;;;25.77;;
21472;SDS011;10898;48.072;11.682;2022-12-18T04:21:06;53.80;;;24.92;;
21472;SDS011;10898;48.072;11.682;2022-12-18T04:23:08;61.88;;;24.70;;
21472;SDS011;10898;48.072;11.682;2022-12-18T04:25:10;54.38;;;25.20;;
21472;SDS011;10898;48.072;11.682;2022-12-18T04:27:12;48.38;;;23.58;;
21472;SDS011;10898;48.072;11.682;2022-12-18T04:29:15;55.63;;;24.80;;
21472;SDS011;10898;48.072;11.682;2022-12-18T04:31:17;50.55;;;25.13;;
21472;SDS011;10898;48.072;11.682;2022-12-18T04:33:19;53.25;;;24.95;;
21472;SDS011;10898;48.072;11.682;2022-12-18T04:35:21;54.05;;;24.40;;
21472;SDS011;10898;48.072;11.682;2022-12-18T04:37:23;47.67;;;22.60;;
21472;SDS011;10898;48.072;11.682;2022-12-18T04:39:26;47.92;;;23.40;;
21472;SDS011;10898;48.072;11.682;2022-12-18T04:41:28;50.25;;;24.10;;
21472;SDS011;10898;48.072;11.682;2022-12-18T04:43:30;56.55;;;23.83;;
21472;SDS011;10898;48.072;11.682;2022-12-18T04:45:34;48.42;;;23.02;;
21472;SDS011;10898;48.072;11.682;2022-12-18T04:47:36;46.17;;;23.33;;
21472;SDS011;10898;48.072;11.682;2022-12-18T04:49:38;49.58;;;23.67;;
21472;SDS011;10898;48.072;11.682;2022-12-18T04:51:40;55.95;;;24.83;;
21472;SDS011;10898;48.072;11.682;2022-12-18T04:53:42;53.58;;;24.58;;
21472;SDS011;10898;48.072;11.682;2022-12-18T04:55:44;52.05;;;24.15;;
21472;SDS011;10898;48.072;11.682;2022-12-18T04:57:46;52.70;;;25.08;;
21472;SDS011;10898;48.072;11.682;2022-12-18T04:59:48;49.45;;;23.63;;
21472;SDS011;10898;48.072;11.682;2022-12-18T05:01:51;48.63;;;23.77;;
21472;SDS011;10898;48.072;11.682;2022-12-18T05:03:53;51.83;;;23.83;;
21472;SDS011;10898;48.072;11.682;2022-12-18T05:05:55;48.63;;;22.02;;
21472;SDS011;10898;48.072;11.682;2022-12-18T05:07:57;52.72;;;23.30;;
21472;SDS011;10898;48.072;11.682;2022-12-18T05:10:00;51.45;;;22.17;;
21472;SDS011;10898;48.072;11.682;2022-12-18T05:12:02;47.33;;;23.52;;
21472;SDS011;10898;48.072;11.682;2022-12-18T05:14:04;44.83;;;21.48;;
21472;SDS011;10898;48.072;11.682;2022-12-18T05:16:06;46.80;;;23.40;;
21472;SDS011;10898;48.072;11.682;2022-12-18T05:20:10;46.87;;;21.53;;
21472;SDS011;10898;48.072;11.682;2022-12-18T05:22:13;48.15;;;22.50;;
21472;SDS011;10898;48.072;11.682;2022-12-18T05:24:15;53.85;;;24.25;;
21472;SDS011;10898;48.072;11.682;2022-12-18T05:26:17;50.92;;;23.38;;
21472;SDS011;10898;48.072;11.682;2022-12-18T05:28:20;48.35;;;22.88;;
21472;SDS011;10898;48.072;11.682;2022-12-18T05:30:23;49.97;;;23.70;;
21472;SDS011;10898;48.072;11.682;2022-12-18T05:32:25;48.10;;;23.45;;
21472;SDS011;10898;48.072;11.682;2022-12-18T05:34:27;44.28;;;21.73;;
21472;SDS011;10898;48.072;11.682;2022-12-18T05:36:29;47.08;;;22.50;;
21472;SDS011;10898;48.072;11.682;2022-12-18T05:38:32;44.83;;;22.83;;
21472;SDS011;10898;48.072;11.682;2022-12-18T05:40:34;51.63;;;23.52;;
21472;SDS011;10898;48.072;11.682;2022-12-18T05:42:37;46.67;;;22.70;;
21472;SDS011;10898;48.072;11.682;2022-12-18T05:44:39;42.55;;;22.02;;
21472;SDS011;10898;48.072;11.682;2022-12-18T05:46:42;42.53;;;20.80;;
21472;SDS011;10898;48.072;11.682;2022-12-18T05:48:44;51.17;;;22.23;;
21472;SDS011;10898;48.072;11.682;2022-12-18T05:50:47;46.92;;;22.92;;
21472;SDS011;10898;48.072;11.682;2022-12-18T05:52:49;49.78;;;23.70;;
21472;SDS011;10898;48.072;11.682;2022-12-18T05:54:52;48.15;;;24.35;;
21472;SDS011;10898;48.072;11.682;2022-12-18T05:56:54;44.35;;;22.17;;
21472;SDS011;10898;48.072;11.682;2022-12-18T05:58:56;46.15;;;22.08;;
21472;SDS011;10898;48.072;11.682;2022-12-18T06:01:05;47.45;;;22.30;;
21472;SDS011;10898;48.072;11.682;2022-12-18T06:03:08;45.58;;;21.27;;
21472;SDS011;10898;48.072;11.682;2022-12-18T06:05:11;47.53;;;22.17;;
21472;SDS011;10898;48.072;11.682;2022-12-18T06:07:13;47.25;;;23.30;;
21472;SDS011;10898;48.072;11.682;2022-12-18T06:09:15;43.70;;;21.75;;
21472;SDS011;10898;48.072;11.682;2022-12-18T06:11:19;49.33;;;22.60;;
21472;SDS011;10898;48.072;11.682;2022-12-18T06:13:22;45.13;;;21.63;;
21472;SDS011;10898;48.072;11.682;2022-12-18T06:15:24;48.95;;;23.40;;
21472;SDS011;10898;48.072;11.682;2022-12-18T06:17:29;51.42;;;22.83;;
21472;SDS011;10898;48.072;11.682;2022-12-18T06:19:32;52.25;;;22.95;;
21472;SDS011;10898;48.072;11.682;2022-12-18T06:21:34;46.00;;;21.88;;
21472;SDS011;10898;48.072;11.682;2022-12-18T06:23:36;44.28;;;21.92;;
21472;SDS011;10898;48.072;11.682;2022-12-18T06:25:39;47.00;;;22.80;;
21472;SDS011;10898;48.072;11.682;2022-12-18T06:27:41;43.10;;;22.40;;
21472;SDS011;10898;48.072;11.682;2022-12-18T06:29:44;48.33;;;22.50;;
21472;SDS011;10898;48.072;11.682;2022-12-18T06:31:46;46.78;;;22.92;;
21472;SDS011;10898;48.072;11.682;2022-12-18T06:33:49;45.25;;;22.58;;
21472;SDS011;10898;48.072;11.682;2022-12-18T06:37:57;45.03;;;20.73;;
21472;SDS011;10898;48.072;11.682;2022-12-18T06:40:00;45.97;;;21.98;;
21472;SDS011;10898;48.072;11.682;2022-12-18T06:42:02;46.92;;;22.80;;
21472;SDS011;10898;48.072;11.682;2022-12-18T06:44:05;47.78;;;23.02;;
21472;SDS011;10898;48.072;11.682;2022-12-18T06:46:07;48.90;;;23.10;;
21472;SDS011;10898;48.072;11.682;2022-12-18T06:50:12;51.17;;;20.93;;
21472;SDS011;10898;48.072;11.682;2022-12-18T06:52:17;48.10;;;22.52;;
21472;SDS011;10898;48.072;11.682;2022-12-18T06:54:20;45.50;;;21.67;;
21472;SDS011;10898;48.072;11.682;2022-12-18T06:56:22;48.75;;;21.52;;
21472;SDS011;10898;48.072;11.682;2022-12-18T06:58:24;47.63;;;23.50;;
21472;SDS011;10898;48.072;11.682;2022-12-18T07:00:26;47.20;;;22.65;;
21472;SDS011;10898;48.072;11.682;2022-12-18T07:02:29;44.42;;;21.55;;
21472;SDS011;10898;48.072;11.682;2022-12-18T07:04:31;43.15;;;22.38;;
21472;SDS011;10898;48.072;11.682;2022-12-18T07:08:35;48.57;;;22.27;;
21472;SDS011;10898;48.072;11.682;2022-12-18T07:10:41;44.33;;;19.98;;
21472;SDS011;10898;48.072;11.682;2022-12-18T07:12:48;49.75;;;21.75;;
21472;SDS011;10898;48.072;11.682;2022-12-18T07:14:50;48.80;;;22.98;;
21472;SDS011;10898;48.072;11.682;2022-12-18T07:16:52;44.90;;;21.58;;
21472;SDS011;10898;48.072;11.682;2022-12-18T07:18:55;43.47;;;20.83;;
21472;SDS011;10898;48.072;11.682;2022-12-18T07:20:57;44.83;;;20.88;;
21472;SDS011;10898;48.072;11.682;2022-12-18T07:23:01;44.50;;;20.80;;
21472;SDS011;10898;48.072;11.682;2022-12-18T07:25:03;50.35;;;22.67;;
21472;SDS011;10898;48.072;11.682;2022-12-18T07:29:08;41.20;;;19.27;;
21472;SDS011;10898;48.072;11.682;2022-12-18T07:31:13;49.28;;;21.38;;
21472;SDS011;10898;48.072;11.682;2022-12-18T07:33:16;44.40;;;22.63;;
21472;SDS011;10898;48.072;11.682;2022-12-18T07:35:18;43.65;;;20.27;;
21472;SDS011;10898;48.072;11.682;2022-12-18T07:37:25;46.13;;;22.27;;
21472;SDS011;10898;48.072;11.682;2022-12-18T07:39:27;44.88;;;20.95;;
21472;SDS011;10898;48.072;11.682;2022-12-18T07:41:29;41.72;;;21.73;;
21472;SDS011;10898;48.072;11.682;2022-12-18T07:43:32;44.05;;;20.42;;
21472;SDS011;10898;48.072;11.682;2022-12-18T07:45:34;54.58;;;23.98;;
21472;SDS011;10898;48.072;11.682;2022-12-18T07:47:37;58.72;;;25.65;;
21472;SDS011;10898;48.072;11.682;2022-12-18T07:49:39;43.63;;;21.95;;
21472;SDS011;10898;48.072;11.682;2022-12-18T07:51:41;46.20;;;22.98;;
21472;SDS011;10898;48.072;11.682;2022-12-18T07:53:43;45.58;;;23.55;;
21472;SDS011;10898;48.072;11.682;2022-12-18T07:55:46;52.95;;;24.63;;
21472;SDS011;10898;48.072;11.682;2022-12-18T07:58:08;44.85;;;21.25;;
21472;SDS011;10898;48.072;11.682;2022-12-18T08:02:12;45.30;;;20.48;;
21472;SDS011;10898;48.072;11.682;2022-12-18T08:06:17;39.72;;;19.30;;
21472;SDS011;10898;48.072;11.682;2022-12-18T08:08:21;44.95;;;20.00;;
21472;SDS011;10898;48.072;11.682;2022-12-18T08:10:23;37.67;;;18.73;;
21472;SDS011;10898;48.072;11.682;2022-12-18T08:12:25;40.40;;;19.88;;
21472;SDS011;10898;48.072;11.682;2022-12-18T08:14:27;42.30;;;21.02;;
21472;SDS011;10898;48.072;11.682;2022-12-18T08:16:30;45.50;;;20.80;;
21472;SDS011;10898;48.072;11.682;2022-12-18T08:18:32;38.83;;;19.75;;
21472;SDS011;10898;48.072;11.682;2022-12-18T08:20:35;36.95;;;17.90;;
21472;SDS011;10898;48.072;11.682;2022-12-18T08:22:37;39.03;;;19.83;;
21472;SDS011;10898;48.072;11.682;2022-12-18T08:24:40;40.38;;;18.75;;
21472;SDS011;10898;48.072;11.682;2022-12-18T08:26:42;40.20;;;19.50;;
21472;SDS011;10898;48.072;11.682;2022-12-18T08:29:04;36.17;;;18.85;;
21472;SDS011;10898;48.072;11.682;2022-12-18T08:31:06;39.58;;;19.63;;
21472;SDS011;10898;48.072;11.682;2022-12-18T08:33:09;38.53;;;18.27;;
21472;SDS011;10898;48.072;11.682;2022-12-18T08:35:11;39.78;;;19.50;;
21472;SDS011;10898;48.072;11.682;2022-12-18T08:37:18;37.22;;;19.02;;
21472;SDS011;10898;48.072;11.682;2022-12-18T08:39:20;39.88;;;19.98;;
21472;SDS011;10898;48.072;11.682;2022-12-18T08:41:23;44.15;;;20.13;;
21472;SDS011;10898;48.072;11.682;2022-12-18T08:43:25;42.10;;;19.98;;
21472;SDS011;10898;48.072;11.682;2022-12-18T08:45:46;35.33;;;16.95;;
21472;SDS011;10898;48.072;11.682;2022-12-18T08:47:48;43.33;;;20.63;;
21472;SDS011;10898;48.072;11.682;2022-12-18T08:49:51;38.65;;;19.55;;
21472;SDS011;10898;48.072;11.682;2022-12-18T08:51:54;40.63;;;20.63;;
21472;SDS011;10898;48.072;11.682;2022-12-18T08:53:58;38.78;;;18.83;;
21472;SDS011;10898;48.072;11.682;2022-12-18T08:56:00;40.42;;;18.98;;
21472;SDS011;10898;48.072;11.682;2022-12-18T08:58:02;39.65;;;19.42;;
21472;SDS011;10898;48.072;11.682;2022-12-18T09:00:04;41.10;;;17.90;;
21472;SDS011;10898;48.072;11.682;2022-12-18T09:04:09;38.65;;;17.55;;
21472;SDS011;10898;48.072;11.682;2022-12-18T09:08:13;37.35;;;18.35;;
21472;SDS011;10898;48.072;11.682;2022-12-18T09:10:16;36.55;;;18.85;;
21472;SDS011;10898;48.072;11.682;2022-12-18T09:12:19;40.63;;;18.90;;
21472;SDS011;10898;48.072;11.682;2022-12-18T09:14:21;34.50;;;18.40;;
21472;SDS011;10898;48.072;11.682;2022-12-18T09:16:24;35.95;;;18.38;;
21472;SDS011;10898;48.072;11.682;2022-12-18T09:18:32;36.88;;;19.00;;
21472;SDS011;10898;48.072;11.682;2022-12-18T09:20:35;41.55;;;20.50;;
21472;SDS011;10898;48.072;11.682;2022-12-18T09:22:37;39.80;;;19.58;;
21472;SDS011;10898;48.072;11.682;2022-12-18T09:24:39;38.78;;;19.45;;
21472;SDS011;10898;48.072;11.682;2022-12-18T09:26:42;39.70;;;19.13;;
21472;SDS011;10898;48.072;11.682;2022-12-18T09:28:47;39.30;;;18.58;;
21472;SDS011;10898;48.072;11.682;2022-12-18T09:32:55;37.83;;;18.33;;
21472;SDS011;10898;48.072;11.682;2022-12-18T09:34:57;38.13;;;17.88;;
21472;SDS011;10898;48.072;11.682;2022-12-18T09:39:02;35.72;;;17.55;;
21472;SDS011;10898;48.072;11.682;2022-12-18T09:43:35;37.80;;;17.75;;
21472;SDS011;10898;48.072;11.682;2022-12-18T09:45:40;30.95;;;16.42;;
21472;SDS011;10898;48.072;11.682;2022-12-18T09:47:45;35.85;;;18.48;;
21472;SDS011;10898;48.072;11.682;2022-12-18T09:49:52;34.70;;;17.70;;
21472;SDS011;10898;48.072;11.682;2022-12-18T09:54:05;39.65;;;19.48;;
21472;SDS011;10898;48.072;11.682;2022-12-18T09:56:10;34.45;;;17.95;;
21472;SDS011;10898;48.072;11.682;2022-12-18T09:58:31;35.90;;;18.98;;
21472;SDS011;10898;48.072;11.682;2022-12-18T10:00:34;34.17;;;17.63;;
21472;SDS011;10898;48.072;11.682;2022-12-18T10:02:36;37.55;;;17.65;;
21472;SDS011;10898;48.072;11.682;2022-12-18T10:04:39;31.15;;;16.45;;
21472;SDS011;10898;48.072;11.682;2022-12-18T10:09:00;36.97;;;18.45;;
21472;SDS011;10898;48.072;11.682;2022-12-18T10:13:31;33.40;;;17.63;;
21472;SDS011;10898;48.072;11.682;2022-12-18T10:18:00;36.80;;;18.70;;
21472;SDS011;10898;48.072;11.682;2022-12-18T10:20:01;43.20;;;20.23;;
21472;SDS011;10898;48.072;11.682;2022-12-18T10:22:12;38.25;;;19.08;;
21472;SDS011;10898;48.072;11.682;2022-12-18T10:24:23;31.27;;;17.00;;
21472;SDS011;10898;48.072;11.682;2022-12-18T10:26:28;34.60;;;17.63;;
21472;SDS011;10898;48.072;11.682;2022-12-18T10:28:31;35.63;;;19.05;;
21472;SDS011;10898;48.072;11.682;2022-12-18T10:30:33;32.10;;;17.25;;
21472;SDS011;10898;48.072;11.682;2022-12-18T10:32:35;35.80;;;17.08;;
21472;SDS011;10898;48.072;11.682;2022-12-18T10:34:39;32.50;;;17.88;;
21472;SDS011;10898;48.072;11.682;2022-12-18T10:36:41;36.97;;;18.48;;
21472;SDS011;10898;48.072;11.682;2022-12-18T10:38:44;33.92;;;17.90;;
21472;SDS011;10898;48.072;11.682;2022-12-18T10:40:56;40.42;;;18.75;;
21472;SDS011;10898;48.072;11.682;2022-12-18T10:45:02;31.97;;;17.03;;
21472;SDS011;10898;48.072;11.682;2022-12-18T10:47:11;34.17;;;17.42;;
21472;SDS011;10898;48.072;11.682;2022-12-18T10:49:47;32.88;;;16.65;;
21472;SDS011;10898;48.072;11.682;2022-12-18T10:51:42;32.95;;;16.73;;
21472;SDS011;10898;48.072;11.682;2022-12-18T10:53:44;29.02;;;16.17;;
21472;SDS011;10898;48.072;11.682;2022-12-18T10:55:54;35.67;;;17.80;;
21472;SDS011;10898;48.072;11.682;2022-12-18T10:58:01;34.85;;;17.42;;
21472;SDS011;10898;48.072;11.682;2022-12-18T11:00:25;32.95;;;16.50;;
21472;SDS011;10898;48.072;11.682;2022-12-18T11:02:34;34.15;;;16.00;;
21472;SDS011;10898;48.072;11.682;2022-12-18T11:04:37;31.70;;;17.33;;
21472;SDS011;10898;48.072;11.682;2022-12-18T11:06:55;32.20;;;16.20;;
21472;SDS011;10898;48.072;11.682;2022-12-18T11:09:05;29.95;;;16.60;;
21472;SDS011;10898;48.072;11.682;2022-12-18T11:11:24;28.83;;;15.43;;
21472;SDS011;10898;48.072;11.682;2022-12-18T11:13:27;32.65;;;16.52;;
21472;SDS011;10898;48.072;11.682;2022-12-18T11:15:31;32.75;;;17.67;;
21472;SDS011;10898;48.072;11.682;2022-12-18T11:17:35;31.27;;;17.20;;
21472;SDS011;10898;48.072;11.682;2022-12-18T11:19:38;29.75;;;16.13;;
21472;SDS011;10898;48.072;11.682;2022-12-18T11:21:41;33.53;;;16.65;;
21472;SDS011;10898;48.072;11.682;2022-12-18T11:23:48;31.63;;;17.08;;
21472;SDS011;10898;48.072;11.682;2022-12-18T11:25:52;31.48;;;15.93;;
21472;SDS011;10898;48.072;11.682;2022-12-18T11:27:59;30.65;;;16.58;;
21472;SDS011;10898;48.072;11.682;2022-12-18T11:30:09;37.15;;;16.45;;
21472;SDS011;10898;48.072;11.682;2022-12-18T11:34:19;29.77;;;15.93;;
21472;SDS011;10898;48.072;11.682;2022-12-18T11:36:34;31.95;;;17.23;;
21472;SDS011;10898;48.072;11.682;2022-12-18T11:38:41;30.50;;;16.42;;
21472;SDS011;10898;48.072;11.682;2022-12-18T11:40:45;34.53;;;17.10;;
21472;SDS011;10898;48.072;11.682;2022-12-18T11:42:52;26.10;;;14.88;;
21472;SDS011;10898;48.072;11.682;2022-12-18T11:45:00;29.23;;;15.88;;
21472;SDS011;10898;48.072;11.682;2022-12-18T11:47:10;29.23;;;15.45;;
21472;SDS011;10898;48.072;11.682;2022-12-18T11:51:33;38.58;;;17.98;;
21472;SDS011;10898;48.072;11.682;2022-12-18T11:53:36;28.67;;;16.55;;
21472;SDS011;10898;48.072;11.682;2022-12-18T12:00:19;29.13;;;18.27;;
21472;SDS011;10898;48.072;11.682;2022-12-18T12:04:42;32.58;;;17.63;;
21472;SDS011;10898;48.072;11.682;2022-12-18T12:15:29;33.35;;;18.38;;
21472;SDS011;10898;48.072;11.682;2022-12-18T12:17:45;33.42;;;17.45;;
21472;SDS011;10898;48.072;11.682;2022-12-18T12:22:06;33.85;;;16.52;;
21472;SDS011;10898;48.072;11.682;2022-12-18T12:26:38;34.55;;;16.70;;
21472;SDS011;10898;48.072;11.682;2022-12-18T12:30:52;32.97;;;17.55;;
21472;SDS011;10898;48.072;11.682;2022-12-18T12:35:08;35.20;;;18.25;;
21472;SDS011;10898;48.072;11.682;2022-12-18T12:39:15;32.08;;;16.95;;
21472;SDS011;10898;48.072;11.682;2022-12-18T12:41:20;32.85;;;17.27;;
21472;SDS011;10898;48.072;11.682;2022-12-18T12:43:43;37.58;;;18.60;;
21472;SDS011;10898;48.072;11.682;2022-12-18T12:46:12;34.60;;;17.13;;
21472;SDS011;10898;48.072;11.682;2022-12-18T12:48:19;38.95;;;19.70;;
21472;SDS011;10898;48.072;11.682;2022-12-18T12:50:22;35.10;;;18.10;;
21472;SDS011;10898;48.072;11.682;2022-12-18T12:52:58;35.20;;;17.63;;
21472;SDS011;10898;48.072;11.682;2022-12-18T12:54:54;36.70;;;17.95;;
21472;SDS011;10898;48.072;11.682;2022-12-18T12:57:02;39.08;;;17.95;;
21472;SDS011;10898;48.072;11.682;2022-12-18T12:59:13;36.08;;;16.88;;
21472;SDS011;10898;48.072;11.682;2022-12-18T13:05:31;38.38;;;19.90;;
21472;SDS011;10898;48.072;11.682;2022-12-18T13:07:46;38.58;;;19.52;;
21472;SDS011;10898;48.072;11.682;2022-12-18T13:12:11;34.83;;;18.48;;
21472;SDS011;10898;48.072;11.682;2022-12-18T13:14:36;38.42;;;18.10;;
21472;SDS011;10898;48.072;11.682;2022-12-18T13:16:39;50.55;;;21.55;;
21472;SDS011;10898;48.072;11.682;2022-12-18T13:18:47;34.47;;;18.15;;
21472;SDS011;10898;48.072;11.682;2022-12-18T13:23:46;33.58;;;18.08;;
21472;SDS011;10898;48.072;11.682;2022-12-18T13:25:38;33.95;;;18.13;;
21472;SDS011;10898;48.072;11.682;2022-12-18T13:29:43;35.03;;;17.65;;
21472;SDS011;10898;48.072;11.682;2022-12-18T13:33:49;31.05;;;17.23;;
21472;SDS011;10898;48.072;11.682;2022-12-18T13:42:42;36.70;;;18.98;;
21472;SDS011;10898;48.072;11.682;2022-12-18T13:45:29;31.63;;;16.90;;
21472;SDS011;10898;48.072;11.682;2022-12-18T13:47:26;34.75;;;17.50;;
21472;SDS011;10898;48.072;11.682;2022-12-18T13:51:35;35.83;;;18.42;;
21472;SDS011;10898;48.072;11.682;2022-12-18T13:55:58;33.88;;;17.02;;
21472;SDS011;10898;48.072;11.682;2022-12-18T13:58:04;35.53;;;18.10;;
21472;SDS011;10898;48.072;11.682;2022-12-18T14:02:23;37.83;;;19.45;;
21472;SDS011;10898;48.072;11.682;2022-12-18T14:04:27;38.20;;;18.45;;
21472;SDS011;10898;48.072;11.682;2022-12-18T14:06:29;36.47;;;18.27;;